Time;durP1;ratioP1;P1;durP2;ratioP2;P2;SDS_P1;SDS_P2;PMS_P1;PMS_P2;Temp;Humidity;BMP_temperature;BMP_pressure;BME280_temperature;BME280_humidity;BME280_pressure;Samples;Min_cycle;Max_cycle;Signal;HPM_P1;HPM_P2
2023/06/10 00:01:28;;;;;;;6.63;5.60;;;;;;;20.06;68.43;96557.94;5047367;28;20221;-71
2023/06/10 00:04:49;;;;;;;10.13;5.43;;;;;;;20.09;68.53;96560.28;5047442;28;20272;-73
2023/06/10 00:08:11;;;;;;;6.50;5.30;;;;;;;20.08;68.37;96556.00;5047383;28;20208;-74
2023/06/10 00:11:31;;;;;;;8.43;5.57;;;;;;;19.99;68.83;96552.41;5047178;28;20699;-74
2023/06/10 00:14:53;;;;;;;6.07;5.00;;;;;;;20.04;68.62;96538.84;5047051;28;20936;-69
2023/06/10 00:18:14;;;;;;;9.87;5.23;;;;;;;20.04;68.87;96544.09;5046960;28;20197;-74
2023/06/10 00:21:37;;;;;;;7.10;5.33;;;;;;;20.02;68.99;96530.25;5047493;28;20681;-72
2023/06/10 00:24:57;;;;;;;7.83;5.70;;;;;;;19.99;69.18;96533.19;5047014;28;20243;-73
2023/06/10 00:28:18;;;;;;;7.20;5.70;;;;;;;19.80;69.29;96531.41;5046975;28;20657;-73
2023/06/10 00:31:39;;;;;;;6.07;5.17;;;;;;;19.53;70.11;96538.28;5047107;28;20208;-69
2023/06/10 00:34:59;;;;;;;7.23;5.40;;;;;;;19.61;70.51;96530.56;5047135;28;20258;-77
2023/06/10 00:38:20;;;;;;;7.67;5.57;;;;;;;19.89;69.23;96540.22;5046752;28;20274;-73
2023/06/10 00:41:41;;;;;;;10.20;5.80;;;;;;;19.65;69.88;96537.19;5046465;28;20196;-72
2023/06/10 00:45:03;;;;;;;9.07;5.50;;;;;;;19.67;69.81;96546.59;5046027;28;20194;-69
2023/06/10 00:48:24;;;;;;;9.73;5.77;;;;;;;19.64;70.11;96548.69;5046547;28;20197;-73
2023/06/10 00:51:45;;;;;;;9.60;5.67;;;;;;;19.56;70.10;96548.53;5046910;28;20268;-69
2023/06/10 00:55:07;;;;;;;9.10;6.03;;;;;;;19.55;70.98;96552.13;5046456;28;20200;-71
2023/06/10 00:58:28;;;;;;;10.13;5.70;;;;;;;19.16;72.46;96554.66;5048326;28;20208;-75
2023/06/10 01:01:51;;;;;;;7.60;5.60;;;;;;;19.14;72.69;96553.97;5046437;28;20190;-75
2023/06/10 01:05:13;;;;;;;11.07;5.50;;;;;;;19.20;71.91;96542.91;5045050;28;20201;-75
2023/06/10 01:08:41;;;;;;;10.00;5.67;;;;;;;18.32;74.98;96541.81;5046242;28;20191;-76
2023/06/10 01:12:08;;;;;;;7.20;5.57;;;;;;;17.72;78.39;96541.72;5046484;28;20257;-74
2023/06/10 01:15:29;;;;;;;7.40;5.97;;;;;;;17.65;79.39;96536.13;5044293;28;20739;-74
2023/06/10 01:18:52;;;;;;;9.73;6.80;;;;;;;17.66;79.79;96529.13;5045004;28;20218;-72
2023/06/10 01:22:15;;;;;;;10.87;6.77;;;;;;;17.66;80.11;96535.16;5046990;28;20191;-71
2023/06/10 01:25:37;;;;;;;6.97;6.23;;;;;;;17.91;79.99;96535.78;5046335;28;20200;-72
2023/06/10 01:29:13;;;;;;;10.10;6.87;;;;;;;18.13;79.00;96538.28;5044538;28;20198;-75
2023/06/10 01:32:14;;;;;;;8.57;6.67;;;;;;;18.23;79.21;96545.25;5015071;28;20210;-67
2023/06/10 01:35:35;;;;;;;8.73;6.47;;;;;;;18.58;77.03;96545.75;5046416;28;20671;-68
2023/06/10 01:38:55;;;;;;;10.37;6.87;;;;;;;18.68;76.25;96533.50;5046006;28;20253;-71
2023/06/10 01:42:16;;;;;;;10.30;6.57;;;;;;;18.44;76.71;96542.63;5044269;28;20698;-71
2023/06/10 01:45:37;;;;;;;9.00;6.60;;;;;;;18.21;77.62;96541.91;5044029;28;20202;-68
2023/06/10 01:48:58;;;;;;;11.63;7.33;;;;;;;17.78;79.97;96547.25;5044115;28;20192;-71
2023/06/10 01:52:18;;;;;;;8.70;6.90;;;;;;;17.73;80.26;96544.19;5046064;28;20204;-70
2023/06/10 01:55:40;;;;;;;10.80;6.30;;;;;;;18.15;78.81;96544.22;5046675;28;20676;-66
2023/06/10 01:59:02;;;;;;;6.90;5.83;;;;;;;18.22;77.56;96527.00;5048120;28;20250;-70
2023/06/10 02:02:24;;;;;;;9.43;6.80;;;;;;;18.51;77.21;96543.75;5047778;28;20192;-69
2023/06/10 02:05:45;;;;;;;8.83;6.47;;;;;;;18.49;76.96;96548.28;5048005;28;20191;-69
2023/06/10 02:09:06;;;;;;;9.77;6.33;;;;;;;18.66;75.29;96545.06;5047687;28;20589;-67
2023/06/10 02:12:26;;;;;;;9.23;5.77;;;;;;;18.85;74.63;96544.31;5047368;28;20195;-69
2023/06/10 02:15:47;;;;;;;8.63;6.27;;;;;;;18.97;73.32;96549.34;5047812;28;20197;-71
2023/06/10 02:19:09;;;;;;;7.57;6.13;;;;;;;18.75;74.33;96552.16;5049770;28;20207;-77
2023/06/10 02:22:30;;;;;;;9.90;6.73;;;;;;;18.80;74.51;96551.75;5049504;28;20592;-76
2023/06/10 02:25:51;;;;;;;10.47;6.97;;;;;;;18.84;74.33;96547.91;5049361;28;20653;-76
2023/06/10 02:29:12;;;;;;;9.43;6.77;;;;;;;18.88;74.04;96555.38;5049454;28;20250;-69
2023/06/10 02:32:33;;;;;;;9.27;7.23;;;;;;;18.85;73.23;96546.94;5047232;28;20203;-73
2023/06/10 02:35:55;;;;;;;12.80;7.50;;;;;;;18.69;73.25;96552.69;5047867;28;20196;-71
2023/06/10 02:39:16;;;;;;;9.40;6.30;;;;;;;18.51;73.92;96551.63;5048889;28;20230;-73
2023/06/10 02:42:38;;;;;;;12.57;6.87;;;;;;;18.03;75.15;96553.94;5047189;28;20195;-73
2023/06/10 02:45:59;;;;;;;15.00;6.97;;;;;;;17.67;76.80;96557.78;5048876;28;20254;-73
2023/06/10 02:49:20;;;;;;;9.97;7.00;;;;;;;17.52;77.79;96559.03;5047234;28;20257;-67
2023/06/10 02:52:41;;;;;;;14.40;7.57;;;;;;;17.53;77.58;96563.31;5047171;28;20283;-76
2023/06/10 02:56:03;;;;;;;13.70;7.53;;;;;;;17.39;78.78;96554.88;5046981;28;20195;-75
2023/06/10 02:59:24;;;;;;;9.33;6.53;;;;;;;17.40;78.42;96560.00;5048369;28;20193;-78
2023/06/10 03:02:45;;;;;;;13.17;6.87;;;;;;;17.12;78.98;96563.16;5046585;28;20203;-73
2023/06/10 03:06:12;;;;;;;11.43;6.73;;;;;;;17.17;79.52;96568.84;5047086;28;20221;-69
2023/06/10 03:09:40;;;;;;;11.03;7.97;;;;;;;17.08;79.98;96569.59;5047453;28;20280;-70
2023/06/10 03:13:00;;;;;;;8.70;6.80;;;;;;;16.97;81.09;96570.44;5046246;28;20633;-69
2023/06/10 03:16:21;;;;;;;10.60;7.33;;;;;;;17.08;81.08;96564.34;5046439;28;20290;-68
2023/06/10 03:19:43;;;;;;;9.33;6.77;;;;;;;17.35;79.50;96575.22;5046393;28;20226;-66
2023/06/10 03:23:05;;;;;;;10.60;6.80;;;;;;;17.66;77.68;96571.03;5048770;28;20201;-74
2023/06/10 03:26:25;;;;;;;8.63;6.67;;;;;;;17.67;77.38;96565.66;5048092;28;20272;-71
2023/06/10 03:29:47;;;;;;;10.70;7.20;;;;;;;17.40;78.74;96570.47;5045774;28;20198;-66
2023/06/10 03:33:12;;;;;;;9.67;6.17;;;;;;;17.52;78.19;96569.50;5046569;28;20285;-67
2023/06/10 03:36:32;;;;;;;9.00;6.60;;;;;;;17.73;77.63;96567.75;5046315;28;20181;-67
2023/06/10 03:39:53;;;;;;;8.13;7.17;;;;;;;17.85;76.65;96569.38;5045743;28;20295;-67
2023/06/10 03:43:17;;;;;;;7.40;6.30;;;;;;;17.91;76.06;96572.47;5046016;28;20205;-66
2023/06/10 03:46:38;;;;;;;7.57;6.20;;;;;;;18.05;75.94;96564.28;5045855;28;20194;-66
2023/06/10 03:49:59;;;;;;;7.40;5.87;;;;;;;18.46;74.63;96566.94;5047880;28;20704;-66
2023/06/10 03:53:22;;;;;;;12.43;6.20;;;;;;;18.56;73.58;96567.81;5046313;28;20286;-67
2023/06/10 03:56:43;;;;;;;9.80;6.27;;;;;;;18.85;73.14;96563.53;5045441;28;20192;-67
2023/06/10 04:00:08;;;;;;;10.40;6.07;;;;;;;19.59;70.86;96556.13;5047364;28;20219;-68
2023/06/10 04:03:28;;;;;;;12.00;6.70;;;;;;;19.75;69.65;96561.66;5047289;28;20201;-69
2023/06/10 04:06:50;;;;;;;10.00;6.27;;;;;;;19.43;71.50;96557.47;5047771;28;20786;-68
2023/06/10 04:10:11;;;;;;;6.83;6.13;;;;;;;19.96;70.24;96555.31;5045350;28;20186;-68
2023/06/10 04:13:33;;;;;;;9.00;6.13;;;;;;;20.02;69.61;96549.50;5045196;28;20244;-71
2023/06/10 04:16:55;;;;;;;7.63;6.47;;;;;;;20.23;69.18;96550.19;5045262;28;20193;-66
2023/06/10 04:20:16;;;;;;;6.43;5.63;;;;;;;20.28;69.10;96547.13;5045367;28;20233;-69
2023/06/10 04:23:38;;;;;;;10.13;6.17;;;;;;;20.84;67.96;96550.56;5046942;28;20699;-73
2023/06/10 04:26:59;;;;;;;8.53;6.63;;;;;;;21.71;65.26;96553.56;5045201;28;20186;-74
2023/06/10 04:30:19;;;;;;;11.30;6.50;;;;;;;22.17;62.85;96556.00;5045045;28;20183;-81
2023/06/10 04:33:41;;;;;;;7.80;6.60;;;;;;;22.48;60.55;96551.91;5044839;28;20215;-73
2023/06/10 04:37:02;;;;;;;8.23;6.10;;;;;;;22.47;59.16;96558.19;5045077;28;20317;-65
2023/06/10 04:40:23;;;;;;;8.20;5.90;;;;;;;22.62;60.29;96551.41;5044647;28;20222;-66
2023/06/10 04:43:44;;;;;;;8.97;6.67;;;;;;;22.92;60.41;96565.06;5044704;28;20600;-74
2023/06/10 04:47:07;;;;;;;7.60;5.70;;;;;;;22.85;60.31;96561.41;5044653;28;20245;-67
2023/06/10 04:50:28;;;;;;;8.70;6.00;;;;;;;22.01;61.15;96553.19;5046774;28;20200;-67
2023/06/10 04:53:50;;;;;;;7.43;5.93;;;;;;;21.92;63.34;96558.56;5044610;28;20667;-69
2023/06/10 04:57:11;;;;;;;9.37;7.60;;;;;;;21.51;64.27;96557.31;5046660;28;20602;-70
2023/06/10 05:00:32;;;;;;;11.87;7.87;;;;;;;21.46;64.47;96552.50;5046097;28;20318;-68
2023/06/10 05:03:52;;;;;;;9.47;6.30;;;;;;;21.54;64.94;96555.19;5046513;28;20201;-77
2023/06/10 05:07:13;;;;;;;8.27;6.00;;;;;;;21.67;65.23;96550.41;5046465;28;20277;-78
2023/06/10 05:10:34;;;;;;;10.57;6.80;;;;;;;21.76;65.21;96551.31;5046378;28;20190;-72
2023/06/10 05:13:54;;;;;;;9.83;6.77;;;;;;;21.63;65.08;96556.13;5045844;28;20243;-70
2023/06/10 05:17:15;;;;;;;10.00;6.30;;;;;;;21.84;63.82;96559.34;5046022;28;20221;-73
2023/06/10 05:20:36;;;;;;;8.27;5.60;;;;;;;21.62;65.52;96554.44;5046468;28;20359;-74
2023/06/10 05:23:57;;;;;;;8.23;6.40;;;;;;;21.77;65.88;96555.59;5045998;28;20194;-73
2023/06/10 05:27:17;;;;;;;9.93;6.90;;;;;;;21.88;66.42;96549.31;5045677;28;20190;-70
2023/06/10 05:30:38;;;;;;;9.87;5.93;;;;;;;21.80;66.24;96540.28;5048719;28;20547;-71
2023/06/10 05:33:59;;;;;;;7.93;5.50;;;;;;;21.92;66.45;96540.94;5050035;28;20243;-72
2023/06/10 05:37:19;;;;;;;7.07;6.00;;;;;;;21.73;68.23;96543.69;5050154;28;20261;-74
2023/06/10 05:40:40;;;;;;;11.50;7.40;;;;;;;21.75;68.04;96539.09;5049871;28;20254;-68
2023/06/10 05:44:01;;;;;;;10.87;6.33;;;;;;;21.93;67.53;96542.59;5049819;28;20195;-77
2023/06/10 05:47:21;;;;;;;9.73;5.93;;;;;;;21.95;67.30;96543.25;5049651;28;20572;-76
2023/06/10 05:50:44;;;;;;;10.80;6.10;;;;;;;21.71;67.10;96535.94;5049958;28;20191;-70
2023/06/10 05:54:05;;;;;;;15.43;6.67;;;;;;;21.95;66.14;96537.97;5049086;28;20187;-70
2023/06/10 05:57:26;;;;;;;7.03;6.27;;;;;;;22.16;65.66;96543.78;5049907;28;20249;-67
2023/06/10 06:00:46;;;;;;;8.80;6.20;;;;;;;22.36;64.34;96542.59;5049289;28;20314;-70
2023/06/10 06:04:07;;;;;;;11.13;7.50;;;;;;;22.53;64.08;96547.00;5049584;28;20255;-67
2023/06/10 06:07:28;;;;;;;7.83;6.30;;;;;;;22.74;63.24;96554.59;5049586;28;20230;-74
2023/06/10 06:10:48;;;;;;;7.30;6.10;;;;;;;22.77;63.78;96556.09;5049297;28;20576;-72
2023/06/10 06:14:09;;;;;;;9.67;6.37;;;;;;;22.91;63.13;96553.69;5048788;28;20286;-73
2023/06/10 06:17:30;;;;;;;8.03;6.77;;;;;;;22.91;63.62;96551.06;5048713;28;20338;-77
2023/06/10 06:20:51;;;;;;;7.53;6.80;;;;;;;22.83;63.95;96550.19;5049098;28;20301;-76
2023/06/10 06:24:11;;;;;;;8.20;5.97;;;;;;;22.71;64.25;96549.59;5048822;28;20192;-71
2023/06/10 06:27:32;;;;;;;8.13;6.53;;;;;;;22.92;62.61;96546.56;5046638;28;20221;-74
2023/06/10 06:30:53;;;;;;;11.17;6.67;;;;;;;23.05;61.22;96536.41;5048768;28;20260;-76
2023/06/10 06:34:13;;;;;;;9.57;6.13;;;;;;;23.14;61.62;96532.81;5046710;28;20707;-74
2023/06/10 06:37:35;;;;;;;9.87;6.60;;;;;;;23.29;62.25;96541.78;5048382;28;20302;-76
2023/06/10 06:41:06;;;;;;;39.97;33.87;;;;;;;23.13;62.62;96533.78;5029652;28;20243;-69
2023/06/10 06:44:26;;;;;;;11.43;7.10;;;;;;;23.09;62.55;96530.66;5047903;28;20196;-68
2023/06/10 06:47:47;;;;;;;10.53;7.13;;;;;;;23.24;62.61;96528.22;5048080;28;20573;-70
2023/06/10 06:51:08;;;;;;;7.70;5.73;;;;;;;23.08;62.36;96528.97;5048381;28;20196;-71
2023/06/10 06:54:29;;;;;;;12.97;6.03;;;;;;;23.09;61.88;96524.53;5048263;28;20210;-67
2023/06/10 06:57:49;;;;;;;10.50;6.20;;;;;;;23.13;62.91;96534.63;5046066;28;20845;-67
2023/06/10 07:01:10;;;;;;;7.73;6.20;;;;;;;23.13;63.72;96533.78;5047943;28;20248;-73
2023/06/10 07:04:31;;;;;;;10.87;6.97;;;;;;;22.92;63.15;96538.66;5046599;28;20711;-67
2023/06/10 07:07:54;;;;;;;14.20;6.50;;;;;;;22.77;64.48;96534.97;5045863;28;20254;-67
2023/06/10 07:11:15;;;;;;;9.10;6.47;;;;;;;22.94;62.87;96542.78;5047433;28;20197;-70
2023/06/10 07:14:36;;;;;;;8.03;6.63;;;;;;;23.17;61.41;96537.78;5047345;28;20702;-67
2023/06/10 07:17:57;;;;;;;8.47;6.60;;;;;;;23.25;59.43;96533.34;5048456;28;20193;-70
2023/06/10 07:21:17;;;;;;;13.63;7.10;;;;;;;23.42;57.15;96537.75;5047988;28;20222;-67
2023/06/10 07:24:38;;;;;;;9.83;7.03;;;;;;;23.35;57.94;96539.34;5047559;28;20191;-68
2023/06/10 07:27:59;;;;;;;7.53;6.80;;;;;;;23.42;55.88;96539.53;5047488;28;20248;-73
2023/06/10 07:31:20;;;;;;;7.67;5.77;;;;;;;23.64;54.44;96524.91;5048139;28;20273;-77
2023/06/10 07:34:40;;;;;;;8.33;5.67;;;;;;;23.99;53.32;96536.00;5048035;28;20647;-67
2023/06/10 07:38:01;;;;;;;7.70;4.37;;;;;;;24.05;52.54;96543.28;5046828;28;20718;-71
2023/06/10 07:41:22;;;;;;;5.50;4.07;;;;;;;24.25;52.87;96535.88;5046698;28;20222;-67
2023/06/10 07:44:43;;;;;;;7.80;4.20;;;;;;;24.23;51.89;96538.66;5046846;28;20275;-75
2023/06/10 07:48:03;;;;;;;6.27;4.30;;;;;;;24.28;51.63;96540.00;5046916;28;20191;-67
2023/06/10 07:51:24;;;;;;;6.93;4.07;;;;;;;24.29;52.31;96542.47;5047004;28;20209;-76
2023/06/10 07:54:45;;;;;;;6.80;4.90;;;;;;;24.17;51.83;96549.09;5046435;28;20554;-67
2023/06/10 07:58:06;;;;;;;10.97;5.47;;;;;;;23.81;54.84;96534.50;5045475;28;20562;-78
2023/06/10 08:01:30;;;;;;;8.03;5.67;;;;;;;23.61;58.05;96541.91;5044779;28;20270;-77
2023/06/10 08:04:51;;;;;;;6.70;5.60;;;;;;;23.40;61.78;96547.66;5047549;28;20192;-75
2023/06/10 08:08:12;;;;;;;7.70;6.03;;;;;;;23.09;62.30;96535.94;5048270;28;20191;-74
2023/06/10 08:11:33;;;;;;;7.13;5.40;;;;;;;23.31;61.85;96534.50;5047906;28;20197;-74
2023/06/10 08:14:54;;;;;;;9.87;7.83;;;;;;;23.61;59.29;96549.00;5046435;28;20197;-72
2023/06/10 08:18:15;;;;;;;6.43;5.40;;;;;;;23.74;57.37;96536.16;5046895;28;20201;-78
2023/06/10 08:21:39;;;;;;;7.60;4.67;;;;;;;23.85;55.33;96531.34;5046545;28;20249;-78
2023/06/10 08:25:00;;;;;;;5.97;4.57;;;;;;;24.15;53.64;96536.03;5046626;28;20292;-74
2023/06/10 08:28:21;;;;;;;5.77;4.33;;;;;;;24.32;53.00;96538.69;5046946;28;20198;-73
2023/06/10 08:31:42;;;;;;;5.53;4.43;;;;;;;24.30;51.61;96535.38;5027455;28;20260;-77
2023/06/10 08:35:03;;;;;;;7.07;4.13;;;;;;;24.61;53.24;96536.28;5046770;28;20195;-80
2023/06/10 08:38:24;;;;;;;4.67;3.70;;;;;;;24.67;50.37;96530.31;5044057;28;20260;-75
2023/06/10 08:41:45;;;;;;;8.67;4.83;;;;;;;24.70;49.92;96536.13;5045574;28;20666;-75
2023/06/10 08:45:08;;;;;;;5.67;4.30;;;;;;;24.67;50.98;96533.81;5045910;28;20191;-77
2023/06/10 08:48:29;;;;;;;6.53;4.67;;;;;;;25.06;49.65;96539.19;5046596;28;20771;-75
2023/06/10 08:51:50;;;;;;;6.00;4.40;;;;;;;25.25;48.51;96528.16;5046376;28;20190;-75
2023/06/10 08:54:51;;;;;;;7.37;4.67;;;;;;;25.38;47.44;96525.78;5046184;28;20200;-77
2023/06/10 08:58:11;;;;;;;6.30;3.87;;;;;;;25.31;46.76;96524.00;5045970;28;20196;-73
2023/06/10 09:01:32;;;;;;;6.17;4.23;;;;;;;25.41;46.92;96529.97;5047206;28;20612;-69
2023/06/10 09:04:53;;;;;;;7.10;4.43;;;;;;;25.58;45.92;96527.03;5045231;28;20249;-80
2023/06/10 09:08:13;;;;;;;6.50;4.10;;;;;;;25.90;45.14;96523.34;5045585;28;20201;-78
2023/06/10 09:11:34;;;;;;;7.83;4.40;;;;;;;25.69;45.13;96528.47;5045298;28;20662;-75
2023/06/10 09:14:55;;;;;;;6.93;5.20;;;;;;;25.86;44.43;96518.56;5045401;28;20199;-75
2023/06/10 09:18:15;;;;;;;7.70;4.10;;;;;;;25.88;43.99;96522.69;5046080;28;20198;-74
2023/06/10 09:21:36;;;;;;;6.60;3.60;;;;;;;25.92;43.50;96517.84;5045309;28;20271;-75
2023/06/10 09:24:57;;;;;;;9.67;4.33;;;;;;;25.94;43.69;96524.63;5045380;28;20570;-76
2023/06/10 09:28:26;;;;;;;6.33;3.87;;;;;;;26.09;42.91;96517.56;5045338;28;20648;-73
2023/06/10 09:31:47;;;;;;;6.33;3.67;;;;;;;26.36;43.27;96524.97;5043834;28;20204;-74
2023/06/10 09:35:08;;;;;;;4.70;3.60;;;;;;;26.53;41.98;96515.00;5045527;28;20316;-77
2023/06/10 09:38:29;;;;;;;5.23;3.70;;;;;;;26.14;42.09;96517.03;5044969;28;20710;-81
2023/06/10 09:41:52;;;;;;;4.73;3.90;;;;;;;26.03;42.79;96514.78;5045461;28;20201;-74
2023/06/10 09:45:13;;;;;;;8.40;4.50;;;;;;;25.95;43.49;96506.88;5045395;28;20197;-74
2023/06/10 09:48:33;;;;;;;5.70;3.80;;;;;;;26.13;41.73;96504.78;5045763;28;20197;-73
2023/06/10 09:51:54;;;;;;;9.57;4.30;;;;;;;26.29;42.08;96501.97;5045745;28;20205;-75
2023/06/10 09:55:21;;;;;;;4.07;3.57;;;;;;;26.26;42.21;96499.66;5044906;28;20194;-76
2023/06/10 09:58:47;;;;;;;5.73;4.07;;;;;;;26.25;42.43;96501.53;5045116;28;20190;-72
2023/06/10 10:02:08;;;;;;;8.07;4.10;;;;;;;26.10;43.19;96500.66;5046049;28;20201;-69
2023/06/10 10:05:29;;;;;;;5.17;3.83;;;;;;;26.19;43.14;96501.41;5045131;28;20197;-72
2023/06/10 10:08:50;;;;;;;8.30;3.97;;;;;;;25.89;43.51;96500.44;5044826;28;20190;-71
2023/06/10 10:12:11;;;;;;;5.73;4.30;;;;;;;26.04;43.02;96485.41;5044964;28;20551;-71
2023/06/10 10:15:32;;;;;;;8.40;4.23;;;;;;;26.28;43.07;96497.66;5045919;28;20187;-70
2023/06/10 10:18:52;;;;;;;6.20;4.77;;;;;;;26.81;43.12;96500.13;5048863;28;20200;-68
2023/06/10 10:22:13;;;;;;;6.27;4.90;;;;;;;27.06;42.57;96488.19;5048609;28;20205;-68
2023/06/10 10:25:34;;;;;;;4.97;4.00;;;;;;;27.29;41.44;96486.22;5048611;28;20341;-72
2023/06/10 10:28:55;;;;;;;7.93;4.50;;;;;;;27.15;41.40;96489.75;5048711;28;20196;-71
2023/06/10 10:32:16;;;;;;;5.93;4.30;;;;;;;27.10;41.87;96486.00;5048481;28;20281;-76
2023/06/10 10:35:43;;;;;;;6.03;4.37;;;;;;;27.08;42.42;96491.47;5048486;28;20719;-69
2023/06/10 10:39:03;;;;;;;5.97;4.17;;;;;;;27.34;42.00;96483.88;5047780;28;20308;-73
2023/06/10 10:42:24;;;;;;;7.40;3.97;;;;;;;27.32;41.73;96488.53;5047711;28;20198;-70
2023/06/10 10:45:45;;;;;;;6.37;5.23;;;;;;;26.99;42.67;96476.66;5048037;28;20592;-68
2023/06/10 10:49:06;;;;;;;5.60;4.13;;;;;;;27.06;43.20;96484.72;5046641;28;20625;-67
2023/06/10 10:52:37;;;;;;;6.83;4.20;;;;;;;26.82;44.28;96485.00;5048501;28;20217;-67
2023/06/10 10:55:58;;;;;;;6.83;3.93;;;;;;;26.32;45.11;96478.53;5047767;28;20189;-79
2023/06/10 10:59:25;;;;;;;5.30;4.17;;;;;;;26.54;44.67;96484.81;5047980;28;20280;-68
2023/06/10 11:02:53;;;;;;;7.60;4.27;;;;;;;26.51;49.46;96483.31;5048154;28;20329;-71
2023/06/10 11:06:20;;;;;;;7.93;4.20;;;;;;;26.78;50.42;96468.59;5046292;28;20209;-78
2023/06/10 11:09:47;;;;;;;7.10;4.27;;;;;;;26.68;50.71;96468.03;5047504;28;20190;-68
2023/06/10 11:12:46;;;;;;;8.13;4.60;;;;;;;26.68;48.28;96476.00;5047744;28;20689;-71
2023/06/10 11:16:08;;;;;;;8.43;4.50;;;;;;;26.76;48.88;96470.63;5047502;28;20257;-70
2023/06/10 11:19:29;;;;;;;7.63;4.37;;;;;;;26.67;49.45;96463.72;5047308;28;20209;-72
2023/06/10 11:22:50;;;;;;;4.67;3.90;;;;;;;26.94;47.75;96451.63;5047596;28;20193;-69
2023/06/10 11:26:20;;;;;;;5.60;3.97;;;;;;;27.16;48.18;96456.81;5047068;28;20225;-68
2023/06/10 11:29:44;;;;;;;6.33;4.60;;;;;;;27.32;47.69;96453.94;5044839;28;20196;-67
2023/06/10 11:33:10;;;;;;;6.17;4.40;;;;;;;27.23;44.56;96456.91;5047639;28;20205;-66
2023/06/10 11:36:31;;;;;;;5.73;4.87;;;;;;;27.01;45.36;96442.75;5047092;28;20592;-67
2023/06/10 11:39:52;;;;;;;8.13;4.90;;;;;;;27.00;44.91;96448.22;5047027;28;20672;-66
2023/06/10 11:43:13;;;;;;;7.70;3.20;;;;;;;26.72;44.36;96442.78;5046670;28;20640;-68
2023/06/10 11:46:49;;;;;;;6.70;4.03;;;;;;;26.38;45.84;96442.44;5045044;28;20221;-66
2023/06/10 11:50:15;;;;;;;4.27;3.80;;;;;;;26.78;44.46;96435.88;5047440;28;20198;-66
2023/06/10 11:53:36;;;;;;;5.93;4.20;;;;;;;27.43;42.86;96426.03;5047338;28;20229;-70
2023/06/10 11:57:00;;;;;;;4.50;3.60;;;;;;;27.65;42.23;96429.53;5046622;28;20229;-71
2023/06/10 12:00:24;;;;;;;7.93;3.80;;;;;;;27.22;41.47;96424.16;5046322;28;20279;-73
2023/06/10 12:03:45;;;;;;;5.70;3.83;;;;;;;27.22;39.87;96412.72;5046093;28;20193;-71
2023/06/10 12:07:08;;;;;;;5.10;3.73;;;;;;;27.54;40.35;96408.75;5047399;28;20193;-69
2023/06/10 12:10:29;;;;;;;6.37;3.50;;;;;;;27.78;39.29;96403.84;5047011;28;20656;-70
2023/06/10 12:13:50;;;;;;;4.87;3.30;;;;;;;27.44;39.45;96402.94;5046652;28;20220;-67
2023/06/10 12:17:11;;;;;;;4.40;3.40;;;;;;;26.94;39.98;96399.31;5044705;28;20502;-76
2023/06/10 12:20:46;;;;;;;3.83;3.43;;;;;;;27.27;40.25;96400.50;5047181;28;20239;-74
2023/06/10 12:24:19;;;;;;;6.70;3.80;;;;;;;27.91;39.87;96398.66;5046846;28;20715;-80
2023/06/10 12:27:40;;;;;;;7.10;3.90;;;;;;;28.10;41.59;96398.03;5046640;28;20310;-67
2023/06/10 12:31:01;;;;;;;6.33;4.17;;;;;;;27.11;44.19;96398.06;5046220;28;20290;-66
2023/06/10 12:34:24;;;;;;;9.30;4.03;;;;;;;27.21;44.36;96393.28;5044614;28;20193;-67
2023/06/10 12:37:45;;;;;;;6.70;4.57;;;;;;;26.94;44.15;96393.97;5046732;28;20234;-67
2023/06/10 12:41:09;;;;;;;6.93;4.20;;;;;;;26.82;44.87;96392.81;5045266;28;20229;-67
2023/06/10 12:44:30;;;;;;;6.50;4.23;;;;;;;26.96;43.96;96386.66;5045974;28;20186;-68
2023/06/10 12:47:53;;;;;;;5.53;4.00;;;;;;;26.91;43.98;96386.41;5045706;28;20215;-68
2023/06/10 12:51:18;;;;;;;5.40;4.23;;;;;;;26.84;43.47;96389.97;5046353;28;20293;-67
2023/06/10 12:54:38;;;;;;;7.20;3.87;;;;;;;26.83;43.56;96381.16;5046383;28;20197;-68
2023/06/10 12:58:00;;;;;;;6.93;4.03;;;;;;;26.87;43.41;96385.13;5044297;28;20190;-67
2023/06/10 13:01:21;;;;;;;7.20;4.27;;;;;;;26.82;43.62;96379.53;5045686;28;20682;-67
2023/06/10 13:04:42;;;;;;;8.70;4.63;;;;;;;26.87;43.69;96386.94;5046169;28;20194;-69
2023/06/10 13:08:04;;;;;;;6.23;3.57;;;;;;;26.98;44.08;96376.66;5046864;28;20190;-74
2023/06/10 13:11:25;;;;;;;4.93;3.80;;;;;;;27.02;44.50;96380.56;5046289;28;20210;-71
2023/06/10 13:14:46;;;;;;;6.10;4.17;;;;;;;26.64;44.16;96339.22;5046105;28;20198;-76
2023/06/10 13:18:10;;;;;;;7.07;4.73;;;;;;;26.99;44.49;96374.81;5046114;28;20190;-71
2023/06/10 13:21:31;;;;;;;5.60;3.83;;;;;;;26.67;44.15;96370.72;5045871;28;20283;-72
2023/06/10 13:24:51;;;;;;;6.30;3.93;;;;;;;26.95;43.28;96373.56;5046029;28;20223;-69
2023/06/10 13:28:12;;;;;;;7.60;3.97;;;;;;;27.09;43.02;96370.84;5045819;28;20600;-77
2023/06/10 13:31:33;;;;;;;5.90;3.97;;;;;;;27.01;43.00;96373.63;5045490;28;20186;-67
2023/06/10 13:34:54;;;;;;;5.30;3.73;;;;;;;27.04;43.76;96372.41;5045594;28;20194;-67
2023/06/10 13:38:14;;;;;;;4.63;3.80;;;;;;;26.71;45.02;96381.81;5043937;28;20724;-67
2023/06/10 13:41:35;;;;;;;7.10;4.13;;;;;;;25.59;46.68;96358.13;5045439;28;20236;-67
2023/06/10 13:44:58;;;;;;;3.90;3.50;;;;;;;25.44;47.61;96381.94;5045560;28;20197;-68
2023/06/10 13:48:20;;;;;;;7.73;4.03;;;;;;;26.00;46.77;96382.44;5046084;28;20193;-68
2023/06/10 13:51:40;;;;;;;7.00;3.60;;;;;;;25.91;46.49;96383.50;5048382;28;20233;-72
2023/06/10 13:55:01;;;;;;;4.80;3.87;;;;;;;25.92;46.01;96382.50;5049952;28;20193;-72
2023/06/10 13:58:22;;;;;;;3.50;3.20;;;;;;;26.12;45.29;96362.41;5047914;28;20197;-69
2023/06/10 14:01:42;;;;;;;4.33;3.47;;;;;;;26.33;41.30;96371.31;5048893;28;20219;-78
2023/06/10 14:05:05;;;;;;;9.50;5.17;;;;;;;26.76;41.76;96379.44;5049648;28;20202;-71
2023/06/10 14:08:25;;;;;;;7.57;3.20;;;;;;;26.57;42.32;96371.03;5052544;28;20186;-78
2023/06/10 14:11:47;;;;;;;4.63;3.50;;;;;;;26.84;41.94;96371.38;5049461;28;20202;-74
2023/06/10 14:15:08;;;;;;;7.80;3.67;;;;;;;27.16;40.62;96384.22;5049081;28;20636;-72
2023/06/10 14:18:28;;;;;;;5.83;3.27;;;;;;;26.73;41.77;96375.31;5049201;28;20202;-68
2023/06/10 14:21:49;;;;;;;4.17;3.03;;;;;;;26.37;42.00;96377.09;5049164;28;20319;-73
2023/06/10 14:25:11;;;;;;;4.53;3.50;;;;;;;26.28;42.68;96378.16;5049659;28;20281;-75
2023/06/10 14:28:31;;;;;;;5.13;3.40;;;;;;;26.39;43.20;96372.41;5048901;28;20321;-72
2023/06/10 14:31:52;;;;;;;4.43;3.70;;;;;;;26.33;43.19;96363.34;5049091;28;20688;-77
2023/06/10 14:35:13;;;;;;;4.57;3.60;;;;;;;26.09;43.72;96360.94;5049545;28;20516;-77
2023/06/10 14:38:33;;;;;;;4.97;3.50;;;;;;;26.07;42.29;96362.97;5048895;28;20675;-73
2023/06/10 14:41:54;;;;;;;4.77;3.53;;;;;;;25.92;43.92;96358.63;5048818;28;20759;-75
2023/06/10 14:45:15;;;;;;;5.77;3.63;;;;;;;25.86;43.68;96348.75;5048566;28;20265;-77
2023/06/10 14:48:36;;;;;;;4.60;3.53;;;;;;;25.82;43.74;96358.91;5048929;28;20201;-78
2023/06/10 14:51:56;;;;;;;4.97;3.43;;;;;;;25.89;42.80;96343.06;5047345;28;20193;-75
2023/06/10 14:55:17;;;;;;;5.97;3.80;;;;;;;26.00;43.09;96339.97;5049099;28;20197;-77
2023/06/10 14:58:38;;;;;;;6.53;4.00;;;;;;;26.08;43.24;96355.84;5046308;28;20189;-75
2023/06/10 15:02:00;;;;;;;6.90;3.80;;;;;;;26.07;42.99;96339.06;5047541;28;20248;-78
2023/06/10 15:05:21;;;;;;;5.23;3.93;;;;;;;26.22;43.46;96345.22;5048620;28;20193;-74
2023/06/10 15:08:42;;;;;;;4.63;3.70;;;;;;;25.76;43.95;96344.50;5049634;28;20201;-76
2023/06/10 15:12:03;;;;;;;4.13;3.53;;;;;;;25.71;43.93;96341.59;5048737;28;20725;-74
2023/06/10 15:15:25;;;;;;;5.63;3.63;;;;;;;25.79;45.51;96344.16;5048260;28;20727;-74
2023/06/10 15:18:45;;;;;;;4.00;3.20;;;;;;;25.79;42.45;96344.16;5048236;28;20202;-79
2023/06/10 15:22:11;;;;;;;4.63;3.33;;;;;;;25.98;41.56;96339.31;5047009;28;20358;-75
2023/06/10 15:25:32;;;;;;;4.20;3.37;;;;;;;26.25;39.23;96336.06;5048292;28;20208;-74
2023/06/10 15:28:52;;;;;;;5.63;3.30;;;;;;;26.35;38.65;96339.25;5047728;28;20215;-78
2023/06/10 15:32:13;;;;;;;6.70;3.63;;;;;;;26.36;40.53;96344.38;5048135;28;20186;-73
2023/06/10 15:35:34;;;;;;;5.93;3.43;;;;;;;26.41;40.37;96346.50;5046376;28;20190;-70
2023/06/10 15:38:55;;;;;;;4.40;3.17;;;;;;;26.49;39.58;96339.25;5047982;28;20300;-79
2023/06/10 15:42:16;;;;;;;4.67;3.53;;;;;;;26.31;40.15;96344.13;5047790;28;20198;-74
2023/06/10 15:45:37;;;;;;;5.67;3.53;;;;;;;26.84;39.20;96342.13;5047921;28;20640;-71